EDDC/DRS METAR and TAF weather

Enter ICAO airport designator
Station Type Date Time Source
EDDC METAR 2019/01/21 22:20 UTC NOAA

EDDC 212220Z 18004KT 9999 BKN032 M05/M06 Q1018


Station Type Date Time Source
EDDC Decoded METAR 2019/01/21 22:20 UTC NOAA

Dresden-Klotzsche, Germany (EDDC) 51-08N 013-45E 232M
Jan 21, 2019 - 05:20 PM EST / 2019.01.21 2220 UTC
Wind: from the S (180 degrees) at 5 MPH (4 KT):0
Visibility: greater than 7 mile(s):0
Sky conditions: mostly cloudy
Temperature: 23 F (-5 C)
Windchill: 15 F (-9 C):1
Dew Point: 21 F (-6 C)
Relative Humidity: 92%
Pressure (altimeter): 30.06 in. Hg (1018 hPa)
ob: EDDC 212220Z 18004KT 9999 BKN032 M05/M06 Q1018
cycle: 22

Station Type Date Time Source
EDDC TAF 2019/01/21 18:27 UTC NOAA

TAF EDDC 211700Z 2118/2218 17005KT CAVOK PROB30
TEMPO 2118/2208 3000 BR


Example: see airport list